createdAt,value
2018-02-24T00:00:38.242Z,39.30
2018-02-24T00:03:20.942Z,41.90
2018-02-24T00:05:59.394Z,40.10
2018-02-24T00:08:30.686Z,39.50
2018-02-24T00:11:22.816Z,39.70
2018-02-24T00:20:29.127Z,40.40
2018-02-24T00:23:00.002Z,41.60
2018-02-24T00:28:55.634Z,43.50
2018-02-24T00:31:24.072Z,43.50
2018-02-24T00:33:52.034Z,44.00
2018-02-24T00:36:19.794Z,40.80
2018-02-24T00:38:47.563Z,44.10
2018-02-24T00:41:15.401Z,41.20
2018-02-24T00:43:43.176Z,41.30
2018-02-24T00:46:12.235Z,41.20
2018-02-24T00:48:40.164Z,41.70
2018-02-24T00:51:08.071Z,41.00
2018-02-24T00:53:36.825Z,41.50
2018-02-24T00:56:04.730Z,43.40
2018-02-24T00:58:32.596Z,44.30
2018-02-24T01:01:00.358Z,42.50
2018-02-24T01:03:28.170Z,41.50
2018-02-24T01:05:55.981Z,44.10
2018-02-24T01:08:23.749Z,41.80
2018-02-24T01:10:52.339Z,41.10
2018-02-24T01:13:20.185Z,41.10
2018-02-24T01:15:48.028Z,41.40
2018-02-24T01:18:15.814Z,41.60
2018-02-24T01:20:43.609Z,42.10
2018-02-24T01:23:11.473Z,42.80
2018-02-24T01:25:40.116Z,42.80
2018-02-24T01:28:07.875Z,42.80
2018-02-24T01:30:35.682Z,42.60
2018-02-24T01:33:03.472Z,44.00
2018-02-24T01:35:31.301Z,43.80
2018-02-24T01:37:59.138Z,43.70
2018-02-24T01:40:26.952Z,43.80
2018-02-24T01:42:54.779Z,43.00
2018-02-24T01:45:22.566Z,43.00
2018-02-24T01:47:50.413Z,45.10
2018-02-24T01:50:18.230Z,43.50
2018-02-24T01:52:47.801Z,44.70
2018-02-24T01:55:16.705Z,44.60
2018-02-24T01:57:46.157Z,45.20
2018-02-24T02:00:15.026Z,42.40
2018-02-24T02:02:44.920Z,43.90
2018-02-24T02:05:15.412Z,44.80
2018-02-24T02:07:44.605Z,43.30
2018-02-24T02:10:12.536Z,43.80
2018-02-24T02:12:42.636Z,43.80
2018-02-24T02:15:15.332Z,44.80
2018-02-24T02:44:41.657Z,47.30
2018-02-24T02:50:11.727Z,44.50
2018-02-24T02:52:52.163Z,43.80
2018-02-24T02:55:29.989Z,45.00
2018-02-24T03:01:09.531Z,46.30
2018-02-24T03:03:40.519Z,45.40
2018-02-24T03:06:14.214Z,45.10
2018-02-24T03:08:44.011Z,45.30
2018-02-24T03:11:12.752Z,45.70
2018-02-24T03:13:40.574Z,46.90
2018-02-24T03:16:08.546Z,44.50
2018-02-24T03:18:36.398Z,45.50
2018-02-24T03:21:04.372Z,45.60
2018-02-24T03:23:32.183Z,45.30
2018-02-24T03:25:59.990Z,46.40
2018-02-24T03:28:27.917Z,47.90
2018-02-24T03:30:55.718Z,46.00
2018-02-24T03:33:24.362Z,45.50
2018-02-24T03:35:53.223Z,45.50
2018-02-24T03:38:21.247Z,45.80
2018-02-24T03:40:53.001Z,46.20
2018-02-24T03:43:22.533Z,44.90
2018-02-24T03:45:54.226Z,45.70
2018-02-24T03:48:25.151Z,45.30
2018-02-24T03:50:54.071Z,46.90
2018-02-24T03:53:23.155Z,46.80
2018-02-24T03:55:51.616Z,46.20
2018-02-24T03:58:20.839Z,47.40
2018-02-24T04:00:48.691Z,46.90
2018-02-24T04:03:16.601Z,47.00
2018-02-24T04:05:46.118Z,46.80
2018-02-24T04:08:15.405Z,48.30
2018-02-24T04:10:44.050Z,47.00
2018-02-24T04:13:12.688Z,47.00
2018-02-24T04:15:40.497Z,46.90
2018-02-24T04:18:08.934Z,47.50
2018-02-24T04:20:38.119Z,48.40
2018-02-24T04:23:06.814Z,48.30
2018-02-24T04:25:34.681Z,47.60
2018-02-24T04:28:02.464Z,47.30
2018-02-24T04:30:31.925Z,48.10
2018-02-24T04:32:59.769Z,48.00
2018-02-24T04:35:27.655Z,47.70
2018-02-24T04:37:55.450Z,48.80
2018-02-24T04:40:23.309Z,48.50
2018-02-24T04:42:51.089Z,49.30
2018-02-24T04:45:18.904Z,45.90
2018-02-24T04:47:46.745Z,46.70
2018-02-24T04:50:14.587Z,47.50
2018-02-24T04:52:42.453Z,48.00
2018-02-24T04:55:11.045Z,47.10
2018-02-24T04:57:39.858Z,47.00
2018-02-24T05:00:09.087Z,48.80
2018-02-24T05:02:37.258Z,46.60
2018-02-24T05:05:05.064Z,46.80
2018-02-24T05:07:32.963Z,47.40
2018-02-24T05:10:00.782Z,47.80
2018-02-24T05:12:28.593Z,46.00
2018-02-24T05:14:57.648Z,47.80
2018-02-24T05:17:25.510Z,46.90
2018-02-24T05:19:53.337Z,46.40
2018-02-24T05:22:21.217Z,46.60
2018-02-24T05:24:48.993Z,44.80
2018-02-24T05:27:16.774Z,45.40
2018-02-24T05:29:44.519Z,46.20
2018-02-24T05:32:12.290Z,45.80
2018-02-24T05:34:40.098Z,46.00
2018-02-24T05:37:07.862Z,46.00
2018-02-24T05:39:35.633Z,44.70
2018-02-24T05:42:03.468Z,44.20
2018-02-24T05:44:31.242Z,44.50
2018-02-24T05:46:59.089Z,44.90
2018-02-24T05:49:27.214Z,44.40
2018-02-24T05:51:55.077Z,45.20
2018-02-24T05:54:22.904Z,45.60
2018-02-24T05:56:50.761Z,46.00
2018-02-24T05:59:18.537Z,43.70
2018-02-24T06:02:02.864Z,44.70
2018-02-24T06:04:30.643Z,44.70
2018-02-24T06:06:58.433Z,44.30
2018-02-24T06:09:26.300Z,43.50
2018-02-24T06:11:54.155Z,43.50
2018-02-24T06:14:22.810Z,43.60
2018-02-24T06:16:50.584Z,43.50
2018-02-24T06:19:19.239Z,42.70
2018-02-24T06:21:47.069Z,42.30
2018-02-24T06:24:15.640Z,42.40
2018-02-24T06:26:43.487Z,42.30
2018-02-24T06:29:11.275Z,41.70
2018-02-24T06:31:39.101Z,43.80
2018-02-24T06:34:06.949Z,43.20
2018-02-24T06:36:37.028Z,42.30
2018-02-24T06:39:05.039Z,41.60
2018-02-24T06:41:32.864Z,41.40
2018-02-24T06:44:01.592Z,42.30
2018-02-24T06:46:29.361Z,43.90
2018-02-24T06:48:57.189Z,42.20
2018-02-24T06:51:24.971Z,42.10
2018-02-24T06:53:52.811Z,41.10
2018-02-24T06:56:20.580Z,40.80
2018-02-24T06:58:48.354Z,39.60
2018-02-24T07:01:16.172Z,39.40
2018-02-24T07:03:44.927Z,39.80
2018-02-24T07:06:12.679Z,38.90
2018-02-24T07:08:40.546Z,39.30
2018-02-24T07:11:08.314Z,38.50
2018-02-24T07:13:36.125Z,39.30
2018-02-24T07:16:03.968Z,39.40
2018-02-24T07:18:32.561Z,38.80
2018-02-24T07:21:00.340Z,38.80
2018-02-24T07:23:28.207Z,38.90
2018-02-24T07:25:56.740Z,39.60
2018-02-24T07:28:24.581Z,39.30
2018-02-24T07:30:53.180Z,39.10
2018-02-24T07:33:20.994Z,39.10
2018-02-24T07:35:48.766Z,39.70
2018-02-24T07:38:16.527Z,40.40
2018-02-24T07:40:44.479Z,38.80
2018-02-24T07:43:12.402Z,39.80
2018-02-24T07:45:40.296Z,40.60
2018-02-24T07:48:08.098Z,40.20
2018-02-24T07:50:35.898Z,38.80
2018-02-24T07:53:03.780Z,39.40
2018-02-24T07:55:31.552Z,38.80
2018-02-24T07:58:00.192Z,38.40
2018-02-24T08:00:28.005Z,38.30
2018-02-24T08:02:55.849Z,39.10
2018-02-24T08:05:24.440Z,38.20
2018-02-24T08:07:52.333Z,38.10
2018-02-24T08:10:20.187Z,38.30
2018-02-24T08:12:48.137Z,38.20
2018-02-24T08:15:15.899Z,38.50
2018-02-24T08:17:44.420Z,37.30
2018-02-24T08:20:12.200Z,37.20
2018-02-24T08:22:40.028Z,36.70
2018-02-24T08:25:07.807Z,38.30
2018-02-24T08:27:35.616Z,38.00
2018-02-24T08:30:03.460Z,37.30
2018-02-24T08:32:31.254Z,39.20
2018-02-24T08:34:59.078Z,38.90
2018-02-24T08:37:26.891Z,38.10
2018-02-24T08:39:55.548Z,37.10
2018-02-24T08:42:23.427Z,37.10
2018-02-24T08:44:51.210Z,37.20
2018-02-24T08:47:18.989Z,37.20
2018-02-24T08:49:46.808Z,37.70
2018-02-24T08:52:14.657Z,39.30
2018-02-24T08:54:42.656Z,37.90
2018-02-24T08:57:10.413Z,39.30
2018-02-24T08:59:38.239Z,38.80
2018-02-24T09:02:06.071Z,38.20
2018-02-24T09:04:33.868Z,38.30
2018-02-24T09:07:01.720Z,38.50
2018-02-24T09:09:29.766Z,37.00
2018-02-24T09:14:33.774Z,38.50
2018-02-24T09:17:02.699Z,38.00
2018-02-24T09:19:32.563Z,37.50
2018-02-24T09:22:00.770Z,37.20
2018-02-24T09:24:50.962Z,39.10
2018-02-24T09:27:36.482Z,36.70
2018-02-24T09:30:12.669Z,38.20
2018-02-24T09:32:41.332Z,37.90
2018-02-24T09:35:13.581Z,37.90
2018-02-24T09:37:41.457Z,38.00
2018-02-24T09:40:09.271Z,36.80
2018-02-24T09:42:37.092Z,36.10
2018-02-24T09:45:05.201Z,36.10
2018-02-24T09:47:32.968Z,37.30
2018-02-24T09:50:00.729Z,37.90
2018-02-24T09:52:28.539Z,38.60
2018-02-24T09:54:57.105Z,37.10
2018-02-24T09:57:24.862Z,37.00
2018-02-24T09:59:52.688Z,37.00
2018-02-24T10:02:20.503Z,37.20
2018-02-24T10:04:48.308Z,37.90
2018-02-24T10:07:16.172Z,38.10
2018-02-24T10:09:44.008Z,37.00
2018-02-24T10:12:11.800Z,37.20
2018-02-24T10:14:39.535Z,38.50
2018-02-24T10:17:07.328Z,38.70
2018-02-24T10:19:35.134Z,36.80
2018-02-24T10:22:02.889Z,36.80
2018-02-24T10:24:30.661Z,38.30
2018-02-24T10:26:58.729Z,38.40
2018-02-24T10:29:26.591Z,38.90
2018-02-24T10:31:54.410Z,38.40
2018-02-24T10:34:22.228Z,35.90
2018-02-24T10:36:49.974Z,36.20
2018-02-24T10:39:17.722Z,36.90
2018-02-24T10:41:45.474Z,37.70
2018-02-24T10:44:13.299Z,37.00
2018-02-24T10:46:41.032Z,36.70
2018-02-24T10:49:15.298Z,35.80
2018-02-24T10:51:43.049Z,38.10
2018-02-24T10:54:10.878Z,38.70
2018-02-24T10:56:39.465Z,38.60
2018-02-24T10:59:08.119Z,35.50
2018-02-24T11:01:36.026Z,35.60
2018-02-24T11:04:04.038Z,36.80
2018-02-24T11:06:31.920Z,36.30
2018-02-24T11:08:59.688Z,36.20
2018-02-24T11:11:27.516Z,37.00
2018-02-24T11:13:56.140Z,35.90
2018-02-24T11:16:23.943Z,35.90
2018-02-24T11:18:51.911Z,35.40
2018-02-24T11:21:19.748Z,36.50
2018-02-24T11:23:47.541Z,37.70
2018-02-24T11:26:16.111Z,35.80
2018-02-24T11:28:44.009Z,35.80
2018-02-24T11:31:12.728Z,35.30
2018-02-24T11:33:41.288Z,35.50
2018-02-24T11:36:09.144Z,35.40
2018-02-24T11:38:37.320Z,41.90
2018-02-24T11:41:09.415Z,37.30
2018-02-24T11:43:37.371Z,36.80
2018-02-24T11:46:05.608Z,37.40
2018-02-24T11:48:33.649Z,35.70
2018-02-24T11:51:27.785Z,36.10
2018-02-24T11:53:56.937Z,37.20
2018-02-24T11:56:31.447Z,36.10
2018-02-24T11:58:59.959Z,36.30
2018-02-24T12:01:28.294Z,36.30
2018-02-24T12:03:56.791Z,36.10
2018-02-24T12:06:24.613Z,36.20
2018-02-24T12:08:52.363Z,35.80
2018-02-24T12:11:20.194Z,40.00
2018-02-24T12:13:48.053Z,37.20
2018-02-24T12:16:16.048Z,34.70
2018-02-24T12:18:44.693Z,38.00
2018-02-24T12:21:12.493Z,38.50
2018-02-24T12:24:02.813Z,35.50
2018-02-24T12:26:38.596Z,36.40
2018-02-24T12:29:08.492Z,35.50
2018-02-24T12:31:36.248Z,37.80
2018-02-24T12:34:04.061Z,38.60
2018-02-24T12:36:31.861Z,35.70
2018-02-24T12:38:59.645Z,35.40
2018-02-24T12:41:27.490Z,37.80
2018-02-24T12:43:55.306Z,35.50
2018-02-24T12:46:23.094Z,38.10
2018-02-24T12:48:51.414Z,36.60
2018-02-24T12:51:19.327Z,35.80
2018-02-24T12:53:47.142Z,35.20
2018-02-24T12:56:15.034Z,37.20
2018-02-24T12:58:42.837Z,35.70
2018-02-24T13:01:10.647Z,35.80
2018-02-24T13:03:38.417Z,35.40
2018-02-24T13:06:06.178Z,36.30
2018-02-24T13:08:33.983Z,37.60
2018-02-24T13:11:01.731Z,35.70
2018-02-24T13:13:29.563Z,35.80
2018-02-24T13:15:57.312Z,34.90
2018-02-24T13:18:25.065Z,34.70
2018-02-24T13:20:52.804Z,35.50
2018-02-24T13:23:20.678Z,36.20
2018-02-24T13:25:48.570Z,37.00
2018-02-24T13:28:16.441Z,38.30
2018-02-24T13:30:44.282Z,34.90
2018-02-24T13:33:12.076Z,36.20
2018-02-24T13:35:40.617Z,35.20
2018-02-24T13:38:08.497Z,35.20
2018-02-24T13:40:36.288Z,33.40
2018-02-24T13:43:04.110Z,35.20
2018-02-24T13:45:31.863Z,34.80
2018-02-24T13:47:59.710Z,33.20
2018-02-24T13:50:27.525Z,33.60
2018-02-24T13:52:55.334Z,33.10
2018-02-24T13:55:23.172Z,33.70
2018-02-24T13:57:51.109Z,34.70
2018-02-24T14:00:18.907Z,32.60
2018-02-24T14:02:46.665Z,33.40
2018-02-24T14:05:15.190Z,34.10
2018-02-24T14:07:42.982Z,34.10
2018-02-24T14:10:10.758Z,34.60
2018-02-24T14:12:38.592Z,34.70
2018-02-24T14:15:06.343Z,34.60
2018-02-24T14:17:34.160Z,35.50
2018-02-24T14:20:01.968Z,34.00
2018-02-24T14:22:29.835Z,33.80
2018-02-24T14:24:57.709Z,33.50
2018-02-24T14:27:26.253Z,33.60
2018-02-24T14:29:54.028Z,33.60
2018-02-24T14:32:21.836Z,33.90
2018-02-24T14:34:49.646Z,34.10
2018-02-24T14:37:17.414Z,35.60
2018-02-24T14:39:45.185Z,34.40
2018-02-24T14:42:13.015Z,33.60
2018-02-24T14:44:40.768Z,33.30
2018-02-24T14:47:08.512Z,35.20
2018-02-24T14:49:37.026Z,34.30
2018-02-24T14:52:04.833Z,34.10
2018-02-24T14:54:32.607Z,32.00
2018-02-24T14:57:00.383Z,33.60
2018-02-24T14:59:28.223Z,34.40
2018-02-24T15:01:55.944Z,32.80
2018-02-24T15:04:23.746Z,31.60
2018-02-24T15:06:51.600Z,32.60
2018-02-24T15:09:19.389Z,32.80
2018-02-24T15:11:47.148Z,33.30
2018-02-24T15:14:14.946Z,33.20
2018-02-24T15:16:42.695Z,33.70
2018-02-24T15:19:10.445Z,33.50
2018-02-24T15:21:38.289Z,33.90
2018-02-24T15:24:06.098Z,34.00
2018-02-24T15:26:33.962Z,34.10
2018-02-24T15:29:01.724Z,34.00
2018-02-24T15:31:29.537Z,35.70
2018-02-24T15:33:57.293Z,35.80
2018-02-24T15:36:25.110Z,32.50
2018-02-24T15:38:52.896Z,32.60
2018-02-24T15:41:20.636Z,32.00
2018-02-24T15:43:48.996Z,32.30
2018-02-24T15:46:17.516Z,35.00
2018-02-24T15:48:45.336Z,34.90
2018-02-24T15:51:13.120Z,33.30
2018-02-24T15:53:40.940Z,33.60
2018-02-24T15:56:08.745Z,32.30
2018-02-24T15:58:37.238Z,33.80
2018-02-24T16:01:06.036Z,34.30
2018-02-24T16:03:34.586Z,31.00
2018-02-24T16:06:02.371Z,31.00
2018-02-24T16:08:31.700Z,31.00
2018-02-24T16:10:59.514Z,31.00
2018-02-24T16:13:27.270Z,31.30
2018-02-24T16:15:55.052Z,32.30
2018-02-24T16:18:22.912Z,34.30
2018-02-24T16:20:51.708Z,31.50
2018-02-24T16:23:19.538Z,33.40
2018-02-24T16:25:47.336Z,31.80
2018-02-24T16:28:15.242Z,31.70
2018-02-24T16:30:43.044Z,32.90
2018-02-24T16:33:11.598Z,31.80
2018-02-24T16:35:40.096Z,32.10
2018-02-24T16:38:08.271Z,32.10
2018-02-24T16:40:36.205Z,31.00
2018-02-24T16:43:04.462Z,32.80
2018-02-24T16:45:32.285Z,30.90
2018-02-24T16:48:01.942Z,31.30
2018-02-24T16:50:29.719Z,31.30
2018-02-24T16:52:57.612Z,33.00
2018-02-24T16:55:25.410Z,32.90
2018-02-24T16:57:53.227Z,32.70
2018-02-24T17:00:21.003Z,32.90
2018-02-24T17:02:48.787Z,32.80
2018-02-24T17:05:17.318Z,32.30
2018-02-24T17:07:45.118Z,32.50
2018-02-24T17:10:12.851Z,32.80
2018-02-24T17:12:40.580Z,33.00
2018-02-24T17:15:08.324Z,34.20
2018-02-24T17:17:36.133Z,33.40
2018-02-24T17:20:03.929Z,32.70
2018-02-24T17:22:31.671Z,33.00
2018-02-24T17:24:59.461Z,34.00
2018-02-24T17:27:27.206Z,33.10
2018-02-24T17:29:55.001Z,33.40
2018-02-24T17:32:22.775Z,33.30
2018-02-24T17:34:50.527Z,33.10
2018-02-24T17:37:18.424Z,33.10
2018-02-24T17:39:52.769Z,33.00
2018-02-24T17:42:21.413Z,33.10
2018-02-24T17:44:49.287Z,33.10
2018-02-24T17:47:17.066Z,33.10
2018-02-24T17:49:44.827Z,33.60
2018-02-24T17:52:12.624Z,33.30
2018-02-24T17:54:41.191Z,33.50
2018-02-24T17:57:09.416Z,33.40
2018-02-24T17:59:37.220Z,32.80
2018-02-24T18:02:05.069Z,33.60
2018-02-24T18:04:32.893Z,34.20
2018-02-24T18:07:00.660Z,34.20
2018-02-24T18:09:28.442Z,34.50
2018-02-24T18:11:57.027Z,34.90
2018-02-24T18:14:24.859Z,35.20
2018-02-24T18:16:52.605Z,36.20
2018-02-24T18:19:20.384Z,36.10
2018-02-24T18:21:48.189Z,35.60
2018-02-24T18:24:15.991Z,36.10
2018-02-24T18:26:43.845Z,36.00
2018-02-24T18:29:12.551Z,36.00
2018-02-24T18:31:40.390Z,36.00
2018-02-24T18:34:08.133Z,36.10
2018-02-24T18:36:36.699Z,37.50
2018-02-24T18:39:04.506Z,36.80
2018-02-24T18:41:32.768Z,36.60
2018-02-24T18:44:00.655Z,36.00
2018-02-24T18:46:28.409Z,36.40
2018-02-24T18:48:56.936Z,35.80
2018-02-24T18:51:24.692Z,35.80
2018-02-24T18:53:54.701Z,35.90
2018-02-24T18:56:22.549Z,36.20
2018-02-24T18:58:51.159Z,36.30
2018-02-24T19:01:18.989Z,36.30
2018-02-24T19:03:46.778Z,36.30
2018-02-24T19:06:15.344Z,36.20
2018-02-24T19:08:44.051Z,36.30
2018-02-24T19:11:12.004Z,36.30
2018-02-24T19:13:39.736Z,35.90
2018-02-24T19:16:07.509Z,35.80
2018-02-24T19:18:35.285Z,36.10
2018-02-24T19:21:05.719Z,36.40
2018-02-24T19:23:33.552Z,36.40
2018-02-24T19:26:01.380Z,36.60
2018-02-24T19:28:29.270Z,36.80
2018-02-24T19:30:57.039Z,36.20
2018-02-24T19:33:24.764Z,37.30
2018-02-24T19:35:52.486Z,35.20
2018-02-24T19:38:20.318Z,36.00
2018-02-24T19:40:48.051Z,35.50
2018-02-24T19:43:15.790Z,34.90
2018-02-24T19:45:43.571Z,36.40
2018-02-24T19:48:11.380Z,35.30
2018-02-24T19:50:39.539Z,34.60
2018-02-24T19:53:07.547Z,35.20
2018-02-24T19:55:35.332Z,34.10
2018-02-24T19:58:03.092Z,35.00
2018-02-24T20:00:31.918Z,35.50
2018-02-24T20:03:03.338Z,35.00
2018-02-24T20:08:23.204Z,34.80
2018-02-24T20:10:51.739Z,34.80
2018-02-24T20:13:20.029Z,34.90
2018-02-24T20:15:48.232Z,34.70
2018-02-24T20:18:16.135Z,35.70
2018-02-24T20:20:51.967Z,35.00
2018-02-24T20:23:20.729Z,35.10
2018-02-24T20:26:10.427Z,34.40
2018-02-24T20:28:41.549Z,34.90
2018-02-24T20:31:28.980Z,34.60
2018-02-24T20:34:02.613Z,34.70
2018-02-24T20:36:40.448Z,34.40
2018-02-24T20:39:10.118Z,34.50
2018-02-24T20:41:38.129Z,35.20
2018-02-24T20:44:07.085Z,34.90
2018-02-24T20:46:40.407Z,34.70
2018-02-24T20:49:10.405Z,34.50
2018-02-24T20:51:45.906Z,34.30
2018-02-24T20:54:13.712Z,34.60
2018-02-24T20:56:41.506Z,34.10
2018-02-24T20:59:11.063Z,34.00
2018-02-24T21:01:39.383Z,34.10
2018-02-24T21:04:07.209Z,33.50
2018-02-24T21:06:35.035Z,33.90
2018-02-24T21:09:02.776Z,32.80
2018-02-24T21:11:33.247Z,33.10
2018-02-24T21:14:01.177Z,33.80
2018-02-24T21:16:30.902Z,34.20
2018-02-24T21:19:05.457Z,34.30
2018-02-24T21:21:33.268Z,34.10
2018-02-24T21:24:01.209Z,33.90
2018-02-24T21:26:29.487Z,34.00
2018-02-24T21:29:16.495Z,34.60
2018-02-24T21:31:44.339Z,34.50
2018-02-24T21:34:12.942Z,34.00
2018-02-24T21:36:40.797Z,34.00
2018-02-24T21:39:08.609Z,34.20
2018-02-24T21:41:36.387Z,34.20
2018-02-24T21:44:04.185Z,34.20
2018-02-24T21:46:31.927Z,34.50
2018-02-24T21:48:59.749Z,34.00
2018-02-24T21:51:27.550Z,34.00
2018-02-24T21:53:55.307Z,34.50
2018-02-24T21:56:23.145Z,34.80
2018-02-24T21:58:50.951Z,34.00
2018-02-24T22:01:19.594Z,34.10
2018-02-24T22:03:47.566Z,35.20
2018-02-24T22:06:15.397Z,38.90
2018-02-24T22:08:43.124Z,33.80
2018-02-24T22:11:10.957Z,34.00
2018-02-24T22:13:38.821Z,34.70
2018-02-24T22:16:06.685Z,35.10
2018-02-24T22:18:35.223Z,35.40
2018-02-24T22:21:05.474Z,35.60
2018-02-24T22:23:34.780Z,34.90
2018-02-24T22:26:03.685Z,34.70
2018-02-24T22:28:31.435Z,34.80
2018-02-24T22:30:59.225Z,34.70
2018-02-24T22:33:27.025Z,35.10
2018-02-24T22:35:54.785Z,35.30
2018-02-24T22:38:23.313Z,36.20
2018-02-24T22:40:51.096Z,35.60
2018-02-24T22:46:02.886Z,35.90
2018-02-24T22:48:36.354Z,35.30
2018-02-24T22:51:04.114Z,35.70
2018-02-24T22:53:31.836Z,35.60
2018-02-24T22:55:59.584Z,36.40
2018-02-24T22:58:27.368Z,35.50
2018-02-24T23:00:56.874Z,36.00
2018-02-24T23:03:24.694Z,36.60
2018-02-24T23:05:55.211Z,39.30
2018-02-24T23:08:22.999Z,37.60
2018-02-24T23:10:51.592Z,36.20
2018-02-24T23:13:19.329Z,36.30
2018-02-24T23:15:47.831Z,39.70
2018-02-24T23:18:15.635Z,39.70
2018-02-24T23:20:43.437Z,37.60
2018-02-24T23:23:11.221Z,38.70
2018-02-24T23:25:39.000Z,37.40
2018-02-24T23:28:10.470Z,37.10
2018-02-24T23:30:38.225Z,37.10
2018-02-24T23:33:06.033Z,38.50
2018-02-24T23:35:34.734Z,37.60
2018-02-24T23:38:02.559Z,38.80
2018-02-24T23:40:30.363Z,38.10
2018-02-24T23:42:58.162Z,37.80
2018-02-24T23:45:25.905Z,38.40
2018-02-24T23:47:53.739Z,37.90
2018-02-24T23:50:21.555Z,37.90
2018-02-24T23:52:49.381Z,38.20
2018-02-24T23:55:17.243Z,39.40
2018-02-24T23:57:44.989Z,39.30
